Fairbury, Nebraska
Current Conditions -  °F | °C
As of 4:15 PM on Wednesday 28 Jan 2015 (Local Time) from KHJH Reporting Station
Clear Clear  
Wind Chill: 69°   Ceiling: Unl
Heat Index: 69°   Visibility: 10mi
Dew Point: 28°   Wind: 13mph
Humidity: 22%   Direction: 310°NW
Pressure: 29.71"   Gusts: 18mph
Location:  40.14°N, 97.18°W
Report Text: KHJH 282215Z AUTO 31011G16KT 10SM CLR 21/M02 A2971 RMK AO2 T02061022
Loading
Personal Weather Stations






























Interactive Weather Map New forecast layout! Learn more

10-Day Weather Forecast

Advertisements
Track Severe Weather on mobile